Time;durP1;ratioP1;P1;durP2;ratioP2;P2;SDS_P1;SDS_P2;PMS_P1;PMS_P2;Temp;Humidity;BMP_temperature;BMP_pressure;BME280_temperature;BME280_humidity;BME280_pressure;Samples;Min_cycle;Max_cycle;Signal;HPM_P1;HPM_P2
2022/09/03 00:02:07;;;;;;;3.27;2.23;;;;;;;17.07;70.85;98214.84;4925088;28;20249;-51
2022/09/03 00:04:42;;;;;;;2.93;2.10;;;;;;;16.89;71.48;98215.44;4923711;28;20564;-52
2022/09/03 00:07:17;;;;;;;3.87;2.00;;;;;;;16.76;72.15;98225.97;4924598;29;20243;-50
2022/09/03 00:09:50;;;;;;;6.33;2.43;;;;;;;16.61;72.02;98223.50;4922136;28;20301;-53
2022/09/03 00:12:23;;;;;;;3.17;2.30;;;;;;;16.47;72.69;98223.44;4920276;28;20269;-50
2022/09/03 00:14:53;;;;;;;5.10;2.60;;;;;;;16.39;73.71;98234.19;4932544;28;20233;-51
2022/09/03 00:17:24;;;;;;;2.40;2.20;;;;;;;16.37;74.64;98236.22;4920858;28;20265;-51
2022/09/03 00:19:56;;;;;;;3.80;2.60;;;;;;;16.27;74.74;98239.22;4921952;28;20241;-53
2022/09/03 00:22:27;;;;;;;7.13;2.37;;;;;;;16.17;74.65;98238.75;4920247;28;20241;-52
2022/09/03 00:24:59;;;;;;;4.37;2.60;;;;;;;16.11;74.92;98223.75;4923924;28;20319;-53
2022/09/03 00:27:28;;;;;;;4.30;2.17;;;;;;;16.00;75.39;98225.13;4921265;28;20235;-51
2022/09/03 00:29:59;;;;;;;6.50;2.23;;;;;;;15.86;76.13;98222.41;4922176;29;20239;-52
2022/09/03 00:32:34;;;;;;;5.23;2.50;;;;;;;15.82;76.21;98221.16;4911534;28;20236;-50
2022/09/03 00:35:03;;;;;;;3.60;2.40;;;;;;;15.82;77.03;98220.38;4922468;28;20830;-52
2022/09/03 00:37:29;;;;;;;3.37;2.50;;;;;;;15.80;77.66;98207.38;4917371;28;20227;-50
2022/09/03 00:39:57;;;;;;;2.60;2.40;;;;;;;15.80;78.41;98202.13;4921479;28;20263;-51
2022/09/03 00:42:39;;;;;;;2.77;2.50;;;;;;;15.77;78.52;98200.72;4917897;28;20240;-52
2022/09/03 00:45:18;;;;;;;5.17;2.70;;;;;;;15.76;79.16;98201.72;4923516;28;20243;-53
2022/09/03 00:47:58;;;;;;;3.20;2.63;;;;;;;15.67;79.67;98202.06;4921224;29;20238;-50
2022/09/03 00:50:38;;;;;;;2.77;2.50;;;;;;;15.65;79.52;98191.75;4921249;28;20239;-52
2022/09/03 00:53:14;;;;;;;2.53;2.33;;;;;;;15.61;79.83;98199.19;4924415;28;20691;-51
2022/09/03 00:55:57;;;;;;;2.67;2.47;;;;;;;15.65;80.35;98210.94;4921094;28;20235;-54
2022/09/03 00:58:40;;;;;;;5.40;2.87;;;;;;;15.58;79.98;98206.69;4919134;29;20317;-53
2022/09/03 01:01:13;;;;;;;3.10;2.80;;;;;;;15.49;80.28;98224.41;4923522;29;20239;-52
2022/09/03 01:03:50;;;;;;;3.10;2.80;;;;;;;15.46;79.77;98224.78;4920238;28;20238;-51
2022/09/03 01:06:19;;;;;;;4.17;2.60;;;;;;;15.46;80.44;98222.16;4920486;28;20237;-50
2022/09/03 01:09:18;;;;;;;4.27;3.20;;;;;;;15.47;80.83;98229.88;4923071;28;20350;-52
2022/09/03 01:11:58;;;;;;;4.33;2.70;;;;;;;15.40;80.75;98229.03;4914079;28;20240;-50
2022/09/03 01:14:38;;;;;;;3.50;3.00;;;;;;;15.37;81.64;98231.22;4919352;28;20326;-51
2022/09/03 01:17:13;;;;;;;3.77;2.83;;;;;;;15.45;81.94;98229.25;4921676;28;20227;-51
2022/09/03 01:20:01;;;;;;;4.77;3.20;;;;;;;15.42;81.92;98227.00;4918040;28;20671;-51
2022/09/03 01:22:47;;;;;;;3.10;2.80;;;;;;;15.40;81.95;98230.81;4919926;28;20252;-50
2022/09/03 01:25:31;;;;;;;2.50;2.30;;;;;;;15.39;82.31;98231.81;4923824;29;20235;-51
2022/09/03 01:28:13;;;;;;;3.70;2.67;;;;;;;15.45;82.21;98231.88;4918277;29;20742;-50
2022/09/03 01:30:47;;;;;;;3.17;2.87;;;;;;;15.47;82.12;98227.25;4920529;29;20243;-51
2022/09/03 01:33:19;;;;;;;6.47;3.20;;;;;;;15.47;82.34;98224.63;4935227;28;20302;-51
2022/09/03 01:35:48;;;;;;;3.87;2.70;;;;;;;15.52;82.42;98226.66;4918664;29;20263;-50
2022/09/03 01:38:27;;;;;;;6.47;3.07;;;;;;;15.57;82.23;98220.84;4918418;29;20262;-50
2022/09/03 01:43:57;;;;;;;4.93;2.70;;;;;;;15.61;82.11;98222.06;4915323;28;20278;-51
2022/09/03 01:46:26;;;;;;;4.07;3.00;;;;;;;15.62;82.30;98232.38;4916261;28;20241;-50
2022/09/03 01:49:03;;;;;;;3.33;2.63;;;;;;;15.63;82.29;98228.75;4922185;28;20235;-51
2022/09/03 01:51:31;;;;;;;3.07;2.77;;;;;;;15.60;83.33;98230.97;4918682;28;20288;-52
2022/09/03 01:54:33;;;;;;;3.87;2.63;;;;;;;15.59;82.40;98230.16;4921490;28;20236;-50
2022/09/03 01:57:33;;;;;;;7.03;2.90;;;;;;;15.67;82.93;98250.25;4918967;28;20231;-50
2022/09/03 02:00:07;;;;;;;5.47;2.80;;;;;;;15.75;81.95;98246.63;4916516;29;20240;-52
2022/09/03 02:02:41;;;;;;;3.50;2.93;;;;;;;15.79;82.59;98234.72;4916966;28;20256;-52
2022/09/03 02:05:10;;;;;;;3.10;2.67;;;;;;;15.97;79.15;98238.69;4920527;28;20235;-51
2022/09/03 02:07:39;;;;;;;2.83;2.63;;;;;;;15.99;79.95;98234.84;4920850;28;20268;-51
2022/09/03 02:10:09;;;;;;;3.90;2.80;;;;;;;16.06;78.72;98240.94;4922276;28;20729;-51
2022/09/03 02:12:37;;;;;;;5.00;2.90;;;;;;;16.07;79.54;98231.25;4933919;28;20242;-50
2022/09/03 02:15:11;;;;;;;4.93;2.73;;;;;;;16.05;79.23;98234.06;4920103;28;20230;-50
2022/09/03 02:17:40;;;;;;;4.23;2.97;;;;;;;16.08;80.26;98228.41;4917142;28;20242;-54
2022/09/03 02:20:28;;;;;;;6.10;3.53;;;;;;;16.10;79.90;98228.22;4916108;28;20296;-50
2022/09/03 02:22:57;;;;;;;3.60;2.90;;;;;;;16.06;79.95;98235.69;4919594;28;20255;-52
2022/09/03 02:25:30;;;;;;;3.77;2.63;;;;;;;16.05;80.84;98226.16;4917807;28;20251;-50
2022/09/03 02:27:57;;;;;;;5.10;3.03;;;;;;;16.02;81.22;98229.19;4921538;28;20239;-54
2022/09/03 02:30:25;;;;;;;3.20;2.90;;;;;;;15.96;81.57;98229.16;4918036;28;20243;-51
2022/09/03 02:32:53;;;;;;;3.03;2.77;;;;;;;15.91;80.93;98227.09;4920412;29;20243;-53
2022/09/03 02:35:20;;;;;;;6.27;3.50;;;;;;;15.88;81.71;98228.31;4917265;29;20245;-51
2022/09/03 02:37:46;;;;;;;4.53;2.80;;;;;;;15.82;82.04;98229.06;4919175;29;20242;-51
2022/09/03 02:40:32;;;;;;;3.33;3.00;;;;;;;15.73;82.48;98211.81;4916377;28;20296;-50
2022/09/03 02:43:00;;;;;;;3.30;2.90;;;;;;;15.69;81.86;98205.31;4919787;28;20750;-53
2022/09/03 02:45:30;;;;;;;5.97;2.90;;;;;;;15.68;82.75;98204.50;4917742;28;20283;-51
2022/09/03 02:47:59;;;;;;;3.67;2.73;;;;;;;15.62;83.19;98198.19;4920400;29;20232;-52
2022/09/03 02:50:26;;;;;;;5.57;2.83;;;;;;;15.59;82.26;98203.03;4917748;28;20250;-50
2022/09/03 02:52:53;;;;;;;2.67;2.43;;;;;;;15.55;82.51;98202.59;4919222;28;20228;-50
2022/09/03 02:55:20;;;;;;;3.83;2.87;;;;;;;15.48;83.21;98202.56;4916566;28;20238;-50
2022/09/03 02:57:47;;;;;;;3.27;3.03;;;;;;;15.52;83.10;98208.25;4919339;28;20234;-51
2022/09/03 03:00:14;;;;;;;4.53;2.40;;;;;;;15.48;83.74;98213.09;4920268;28;20227;-52
2022/09/03 03:02:42;;;;;;;3.30;3.00;;;;;;;15.45;82.90;98213.47;4917642;29;20976;-52
2022/09/03 03:05:17;;;;;;;3.17;2.87;;;;;;;15.40;83.63;98221.13;4920511;28;20259;-53
2022/09/03 03:07:43;;;;;;;7.43;3.30;;;;;;;15.33;82.99;98218.47;4919661;28;20235;-51
2022/09/03 03:10:11;;;;;;;6.23;3.00;;;;;;;15.32;83.09;98213.38;4919120;29;20233;-51
2022/09/03 03:12:38;;;;;;;8.03;3.13;;;;;;;15.29;81.73;98219.84;4917099;29;20283;-52
2022/09/03 03:15:05;;;;;;;4.63;3.33;;;;;;;15.23;83.00;98231.13;4920266;28;20679;-50
2022/09/03 03:17:32;;;;;;;4.70;3.00;;;;;;;15.17;83.55;98224.81;4918206;29;20218;-54
2022/09/03 03:20:00;;;;;;;4.13;2.97;;;;;;;15.22;83.27;98236.56;4921219;28;20611;-53
2022/09/03 03:22:27;;;;;;;3.60;3.03;;;;;;;15.16;83.28;98243.41;4918994;28;20742;-53
2022/09/03 03:24:55;;;;;;;5.93;3.00;;;;;;;15.16;83.74;98241.56;4918959;28;20238;-53
2022/09/03 03:27:22;;;;;;;3.97;2.57;;;;;;;15.16;83.76;98241.56;4916621;28;20304;-52
2022/09/03 03:29:49;;;;;;;3.33;2.73;;;;;;;15.16;84.21;98241.56;4920242;28;20843;-50
2022/09/03 03:32:16;;;;;;;4.80;2.67;;;;;;;15.14;83.84;98243.59;4917357;29;20246;-51
2022/09/03 03:34:43;;;;;;;6.13;2.70;;;;;;;15.13;84.35;98238.53;4916571;29;20714;-51
2022/09/03 03:37:11;;;;;;;3.40;3.10;;;;;;;15.14;84.57;98243.59;4918857;28;20242;-52
2022/09/03 03:39:37;;;;;;;5.30;2.90;;;;;;;15.21;84.55;98243.66;4915014;29;20286;-51
2022/09/03 03:42:04;;;;;;;4.27;2.73;;;;;;;15.19;84.06;98243.03;4918026;28;20252;-50
2022/09/03 03:44:49;;;;;;;3.03;2.67;;;;;;;15.24;84.40;98248.53;4919519;28;20237;-52
2022/09/03 03:47:17;;;;;;;3.85;2.95;;;;;;;15.26;84.08;98243.06;4921068;28;20464;-50
2022/09/03 03:49:44;;;;;;;3.20;2.90;;;;;;;15.25;84.26;98246.69;4915897;28;20569;-50
2022/09/03 03:52:13;;;;;;;3.20;2.70;;;;;;;15.26;85.50;98248.31;4919380;28;20277;-53
2022/09/03 03:54:40;;;;;;;4.33;2.90;;;;;;;15.24;85.19;98245.06;4920315;28;20325;-52
2022/09/03 03:57:06;;;;;;;3.60;2.77;;;;;;;15.26;85.26;98245.69;4925735;29;20239;-50
2022/09/03 03:59:33;;;;;;;5.33;2.90;;;;;;;15.33;85.27;98250.03;4921068;28;20245;-53
2022/09/03 04:02:00;;;;;;;4.50;3.03;;;;;;;15.42;86.32;98255.09;4923747;28;20236;-54
2022/09/03 04:04:27;;;;;;;5.30;3.13;;;;;;;15.45;88.72;98260.81;4918113;28;20641;-51
2022/09/03 04:06:53;;;;;;;7.23;3.40;;;;;;;15.52;90.43;98249.53;4922590;28;20262;-52
2022/09/03 04:09:21;;;;;;;5.30;3.20;;;;;;;15.53;93.01;98251.16;4919589;29;20251;-50
2022/09/03 04:11:49;;;;;;;5.23;3.20;;;;;;;15.47;92.51;98257.97;4921213;28;20254;-50
2022/09/03 04:14:16;;;;;;;3.90;3.30;;;;;;;15.48;93.15;98255.19;4923486;28;20341;-51
2022/09/03 04:16:45;;;;;;;6.20;3.80;;;;;;;15.47;94.17;98264.06;4922401;28;20240;-51
2022/09/03 04:19:13;;;;;;;5.00;3.53;;;;;;;15.46;95.92;98265.06;4922394;28;20754;-50
2022/09/03 04:21:40;;;;;;;5.07;3.40;;;;;;;15.48;96.80;98268.31;4920299;28;20247;-50
2022/09/03 04:24:07;;;;;;;5.63;3.50;;;;;;;15.45;96.61;98268.72;4924586;28;20261;-53
2022/09/03 04:26:35;;;;;;;5.83;3.77;;;;;;;15.43;97.33;98262.81;4919542;28;20242;-50
2022/09/03 04:29:04;;;;;;;7.93;3.33;;;;;;;15.46;97.99;98266.88;4921867;28;20243;-52
2022/09/03 04:31:30;;;;;;;6.50;3.50;;;;;;;15.43;98.34;98260.19;4920797;28;20250;-54
2022/09/03 04:33:57;;;;;;;6.00;3.97;;;;;;;15.44;99.73;98261.81;4925250;28;20326;-53
2022/09/03 04:36:27;;;;;;;3.87;3.47;;;;;;;15.42;100.00;98263.81;4922787;28;20250;-50
2022/09/03 04:38:55;;;;;;;5.17;3.77;;;;;;;15.41;100.00;98264.84;4925074;28;20230;-50
2022/09/03 04:41:24;;;;;;;6.33;4.17;;;;;;;15.37;100.00;98260.16;4918604;28;20228;-50
2022/09/03 04:43:53;;;;;;;4.73;3.93;;;;;;;15.33;100.00;98259.72;4922826;28;20834;-50
2022/09/03 04:46:21;;;;;;;4.30;3.90;;;;;;;15.39;100.00;98258.94;4921146;28;20231;-53
2022/09/03 04:48:49;;;;;;;4.63;3.83;;;;;;;15.43;100.00;98244.41;4923727;28;20449;-53
2022/09/03 04:51:19;;;;;;;4.20;3.50;;;;;;;15.38;100.00;98238.09;4922533;29;20243;-50
2022/09/03 04:53:47;;;;;;;3.87;3.53;;;;;;;15.38;100.00;98238.09;4920567;29;20265;-51
2022/09/03 04:56:16;;;;;;;4.10;3.70;;;;;;;15.34;100.00;98241.13;4922140;28;20244;-52
2022/09/03 04:58:43;;;;;;;6.07;3.63;;;;;;;15.35;100.00;98234.03;4918795;29;20235;-51
2022/09/03 05:01:15;;;;;;;5.63;3.83;;;;;;;15.40;100.00;98247.44;4918615;29;20254;-50
2022/09/03 05:03:42;;;;;;;4.50;3.90;;;;;;;15.45;100.00;98247.66;4919062;28;20238;-51
2022/09/03 05:06:09;;;;;;;3.90;3.60;;;;;;;15.49;100.00;98246.28;4921800;28;20226;-52
2022/09/03 05:08:36;;;;;;;4.87;3.30;;;;;;;15.58;100.00;98248.75;4921815;28;20338;-51
2022/09/03 05:11:04;;;;;;;5.87;3.50;;;;;;;15.64;100.00;98254.06;4920630;29;20249;-52
2022/09/03 05:13:32;;;;;;;4.23;3.83;;;;;;;15.71;100.00;98255.91;4919264;28;20238;-52
2022/09/03 05:16:00;;;;;;;4.77;3.97;;;;;;;15.77;100.00;98260.41;4920619;28;20239;-51
2022/09/03 05:18:29;;;;;;;5.80;3.83;;;;;;;15.87;100.00;98270.63;4919051;28;20240;-53
2022/09/03 05:20:59;;;;;;;4.50;3.80;;;;;;;15.97;100.00;98278.16;4922152;28;20231;-54
2022/09/03 05:23:26;;;;;;;4.60;3.97;;;;;;;15.98;100.00;98285.84;4919896;28;20269;-52
2022/09/03 05:25:57;;;;;;;4.43;4.03;;;;;;;16.03;100.00;98278.19;4921831;29;20251;-51
2022/09/03 05:28:26;;;;;;;4.57;3.90;;;;;;;16.14;100.00;98284.75;4921145;28;20650;-53
2022/09/03 05:30:59;;;;;;;6.80;4.03;;;;;;;16.19;98.43;98292.03;4921646;29;20323;-51
2022/09/03 05:33:26;;;;;;;7.70;4.50;;;;;;;16.29;94.99;98281.16;4918369;28;20239;-50
2022/09/03 05:35:54;;;;;;;4.73;4.27;;;;;;;16.33;93.51;98285.03;4921154;28;20320;-50
2022/09/03 05:38:21;;;;;;;5.83;4.43;;;;;;;16.40;93.31;98287.69;4917215;28;20235;-50
2022/09/03 05:40:48;;;;;;;7.30;4.40;;;;;;;16.36;92.05;98290.69;4920218;28;20593;-52
2022/09/03 05:43:16;;;;;;;9.63;4.33;;;;;;;16.38;92.80;98286.06;4919528;28;20235;-52
2022/09/03 05:45:42;;;;;;;5.60;4.60;;;;;;;16.40;92.79;98299.03;4920024;28;20740;-51
2022/09/03 05:48:09;;;;;;;5.50;4.70;;;;;;;16.35;94.49;98286.44;4922562;28;20243;-52
2022/09/03 05:50:36;;;;;;;6.70;4.70;;;;;;;16.30;94.81;98285.41;4918514;28;20306;-50
2022/09/03 05:53:04;;;;;;;5.23;4.30;;;;;;;16.26;95.82;98292.88;4919285;28;20240;-54
2022/09/03 05:55:31;;;;;;;4.73;4.23;;;;;;;16.23;95.84;98290.63;4918879;28;20242;-53
2022/09/03 05:57:57;;;;;;;8.30;3.93;;;;;;;16.22;97.66;98289.00;4919211;28;20244;-54
2022/09/03 06:00:24;;;;;;;5.60;4.30;;;;;;;16.23;97.71;98288.00;4914880;29;20232;-53
2022/09/03 06:02:51;;;;;;;4.60;4.00;;;;;;;16.28;98.02;98290.06;4919199;29;20240;-54
2022/09/03 06:05:18;;;;;;;4.43;4.00;;;;;;;16.36;98.02;98290.69;4918948;28;20709;-51
2022/09/03 06:07:48;;;;;;;5.10;4.37;;;;;;;16.49;98.45;98302.31;4920906;28;20246;-51
2022/09/03 06:10:17;;;;;;;4.50;3.83;;;;;;;16.65;98.99;98303.75;4920744;29;20245;-52
2022/09/03 06:12:48;;;;;;;4.37;3.77;;;;;;;16.81;99.02;98308.69;4917717;28;20244;-50
2022/09/03 06:15:15;;;;;;;4.20;3.80;;;;;;;16.95;97.36;98301.63;4918634;29;20731;-52
2022/09/03 06:17:42;;;;;;;3.73;3.43;;;;;;;17.09;95.91;98299.84;4919117;28;20326;-53
2022/09/03 06:20:10;;;;;;;4.20;3.80;;;;;;;17.24;95.79;98310.19;4921350;28;20712;-51
2022/09/03 06:22:55;;;;;;;4.47;3.57;;;;;;;17.37;94.96;98309.41;4919920;28;20374;-51
2022/09/03 06:25:24;;;;;;;4.87;4.03;;;;;;;17.51;92.79;98309.38;4919198;28;20583;-54
2022/09/03 06:27:51;;;;;;;5.90;4.03;;;;;;;17.39;91.35;98310.00;4921839;28;20739;-53
2022/09/03 06:30:17;;;;;;;4.30;3.73;;;;;;;17.54;91.48;98309.81;4917583;29;20231;-52
2022/09/03 06:32:45;;;;;;;4.37;3.60;;;;;;;17.67;92.78;98313.44;4921449;28;20613;-50
2022/09/03 06:35:12;;;;;;;5.33;4.83;;;;;;;17.80;91.54;98307.31;4921177;28;20228;-51
2022/09/03 06:37:39;;;;;;;6.20;4.10;;;;;;;17.88;89.42;98301.84;4919261;28;20239;-52
2022/09/03 06:40:11;;;;;;;6.00;3.80;;;;;;;17.99;88.12;98303.88;4921030;29;20266;-51
2022/09/03 06:42:40;;;;;;;5.37;3.87;;;;;;;18.01;86.92;98306.31;4918518;28;20743;-52
2022/09/03 06:45:08;;;;;;;5.20;4.47;;;;;;;18.08;86.19;98308.94;4918021;28;20246;-50
2022/09/03 06:47:36;;;;;;;5.33;4.00;;;;;;;18.11;86.37;98313.81;4918614;29;20240;-53
2022/09/03 06:50:03;;;;;;;4.07;3.53;;;;;;;18.26;86.83;98310.91;4921706;28;20235;-52
2022/09/03 06:52:32;;;;;;;4.47;3.90;;;;;;;18.26;86.86;98302.97;4915241;28;20253;-51
2022/09/03 06:54:58;;;;;;;4.37;3.97;;;;;;;18.33;86.59;98301.13;4917607;28;20245;-51
2022/09/03 06:57:25;;;;;;;4.90;3.73;;;;;;;18.61;87.73;98302.63;4918621;28;20231;-53
2022/09/03 06:59:54;;;;;;;6.33;3.47;;;;;;;18.87;87.03;98308.81;4918198;29;20238;-53
2022/09/03 07:02:21;;;;;;;4.33;3.23;;;;;;;19.08;84.20;98304.22;4916269;28;20249;-54
2022/09/03 07:04:49;;;;;;;3.93;3.47;;;;;;;19.10;81.14;98308.28;4919984;29;20901;-50
2022/09/03 07:07:15;;;;;;;4.77;3.47;;;;;;;19.03;81.30;98308.34;4921517;28;20245;-50
2022/09/03 07:09:42;;;;;;;3.70;3.20;;;;;;;19.07;81.46;98308.69;4918655;28;20245;-51
2022/09/03 07:12:10;;;;;;;3.70;3.27;;;;;;;19.20;80.60;98314.94;4918585;29;21013;-52
2022/09/03 07:14:37;;;;;;;3.60;3.30;;;;;;;19.25;78.89;98312.44;4916730;29;20232;-54
2022/09/03 07:17:05;;;;;;;4.53;3.30;;;;;;;19.29;79.77;98317.09;4919598;28;20230;-50
2022/09/03 07:19:32;;;;;;;5.50;2.97;;;;;;;19.17;80.54;98318.78;4915966;28;20270;-53
2022/09/03 07:21:59;;;;;;;4.17;2.80;;;;;;;19.21;81.37;98322.63;4920985;28;20239;-50
2022/09/03 07:24:26;;;;;;;5.53;3.40;;;;;;;19.24;80.51;98324.84;4917621;28;20240;-53
2022/09/03 07:26:53;;;;;;;4.80;3.23;;;;;;;19.46;79.64;98327.13;4918647;29;20256;-52
2022/09/03 07:29:20;;;;;;;3.53;3.10;;;;;;;19.64;78.41;98330.88;4920285;28;20232;-51
2022/09/03 07:31:49;;;;;;;4.33;3.20;;;;;;;19.86;78.82;98334.75;4921142;29;20250;-51
2022/09/03 07:34:36;;;;;;;4.50;2.90;;;;;;;20.03;76.16;98331.56;4917396;28;20245;-53
2022/09/03 07:37:04;;;;;;;6.87;2.83;;;;;;;20.19;71.54;98335.44;4924241;29;20237;-50
2022/09/03 07:39:32;;;;;;;5.27;2.60;;;;;;;20.13;73.36;98339.81;4922332;28;20252;-51
2022/09/03 07:41:58;;;;;;;5.10;3.13;;;;;;;20.05;74.28;98348.03;4923500;28;20245;-50
2022/09/03 07:44:27;;;;;;;6.23;2.97;;;;;;;19.81;74.88;98347.81;4918860;28;20241;-53
2022/09/03 07:46:54;;;;;;;4.68;3.00;;;;;;;19.62;74.27;98358.38;4922764;28;21154;-52
2022/09/03 07:49:21;;;;;;;3.60;2.80;;;;;;;19.43;76.32;98357.50;4919613;28;20237;-50
2022/09/03 07:51:52;;;;;;;4.10;3.03;;;;;;;19.21;76.21;98370.25;4922996;28;20248;-52
2022/09/03 07:54:20;;;;;;;4.43;2.80;;;;;;;18.83;78.81;98365.78;4921417;28;20243;-50
2022/09/03 07:56:47;;;;;;;3.53;2.90;;;;;;;18.81;78.24;98365.19;4923179;28;20250;-49
2022/09/03 07:59:14;;;;;;;6.27;3.07;;;;;;;18.67;81.25;98367.06;4924144;29;20235;-53
2022/09/03 08:01:40;;;;;;;3.13;2.80;;;;;;;18.65;81.51;98377.84;4920312;28;20335;-50
2022/09/03 08:04:08;;;;;;;4.70;3.30;;;;;;;18.74;83.44;98367.84;4922639;28;20231;-53
2022/09/03 08:06:35;;;;;;;3.40;3.00;;;;;;;18.85;81.05;98372.47;4922312;28;20747;-51
2022/09/03 08:09:05;;;;;;;5.20;3.10;;;;;;;18.93;81.69;98371.44;4924070;29;20725;-50
2022/09/03 08:11:36;;;;;;;4.47;2.90;;;;;;;19.18;79.03;98368.03;4920843;28;20598;-51
2022/09/03 08:14:05;;;;;;;4.83;3.27;;;;;;;19.27;78.40;98368.63;4923051;29;20234;-51
2022/09/03 08:16:34;;;;;;;3.27;2.70;;;;;;;19.73;76.18;98362.13;4920513;29;20260;-52
2022/09/03 08:19:01;;;;;;;4.47;2.90;;;;;;;20.17;74.49;98351.56;4923221;28;20304;-53
2022/09/03 08:21:28;;;;;;;3.53;2.83;;;;;;;20.35;71.57;98360.53;4924180;28;20970;-50
2022/09/03 08:24:01;;;;;;;5.20;2.80;;;;;;;20.40;72.73;98365.19;4925267;28;20312;-52
2022/09/03 08:26:31;;;;;;;2.90;2.53;;;;;;;20.44;71.94;98361.88;4917724;28;20238;-50
2022/09/03 08:28:57;;;;;;;5.27;3.10;;;;;;;20.57;73.01;98363.56;4924415;28;20331;-50
2022/09/03 08:31:26;;;;;;;3.53;2.67;;;;;;;20.68;73.43;98351.41;4919419;29;20259;-50
2022/09/03 08:33:54;;;;;;;3.07;2.60;;;;;;;20.70;73.14;98345.84;4923270;28;20296;-51
2022/09/03 08:36:24;;;;;;;3.17;2.67;;;;;;;20.62;72.98;98342.50;4921142;28;20232;-52
2022/09/03 08:38:54;;;;;;;4.87;2.70;;;;;;;20.62;72.47;98336.38;4922230;28;20772;-53
2022/09/03 08:41:28;;;;;;;10.53;3.00;;;;;;;20.63;73.11;98348.59;4934425;28;20246;-53
2022/09/03 08:44:09;;;;;;;4.27;2.67;;;;;;;20.56;72.90;98353.19;4921029;29;20244;-52
2022/09/03 08:46:50;;;;;;;4.77;3.00;;;;;;;20.45;73.37;98362.69;4915167;28;20227;-50
2022/09/03 08:49:22;;;;;;;3.93;2.50;;;;;;;20.35;74.90;98371.16;4922376;29;20239;-52
2022/09/03 08:51:52;;;;;;;4.63;2.50;;;;;;;20.36;76.02;98372.78;4918223;29;20232;-50
2022/09/03 08:54:24;;;;;;;5.10;2.80;;;;;;;20.32;77.67;98377.72;4920572;28;20232;-50
2022/09/03 08:56:51;;;;;;;4.10;2.90;;;;;;;20.13;74.70;98376.06;4921012;29;20251;-51
2022/09/03 08:59:20;;;;;;;3.87;2.93;;;;;;;20.27;75.70;98376.75;4922056;28;20237;-50
2022/09/03 09:01:55;;;;;;;4.70;2.87;;;;;;;20.50;76.25;98387.50;4917937;28;20279;-51
2022/09/03 09:04:36;;;;;;;4.03;2.93;;;;;;;20.63;79.75;98399.81;4919811;28;20765;-52
2022/09/03 09:07:10;;;;;;;3.93;3.07;;;;;;;20.72;77.76;98415.41;4921806;29;20244;-53
2022/09/03 09:09:47;;;;;;;5.17;2.93;;;;;;;20.90;77.74;98412.75;4919720;29;20903;-51
2022/09/03 09:12:25;;;;;;;3.37;2.43;;;;;;;21.12;77.96;98414.13;4922136;29;20246;-50
2022/09/03 09:15:11;;;;;;;4.43;2.87;;;;;;;21.34;73.52;98398.50;4920384;28;20229;-51
2022/09/03 09:17:59;;;;;;;3.40;2.77;;;;;;;21.61;73.69;98406.88;4918270;28;20248;-52
2022/09/03 09:20:33;;;;;;;2.77;2.50;;;;;;;21.77;73.91;98410.72;4921184;28;20274;-50
2022/09/03 09:23:05;;;;;;;3.10;2.90;;;;;;;21.85;74.90;98416.75;4919361;29;20233;-50
2022/09/03 09:25:38;;;;;;;4.30;3.10;;;;;;;22.02;73.44;98400.94;4921012;28;20269;-52
2022/09/03 09:28:16;;;;;;;3.63;2.67;;;;;;;22.20;71.69;98400.81;4922698;29;20264;-52
2022/09/03 09:30:46;;;;;;;3.30;3.00;;;;;;;22.44;71.65;98405.28;4918619;28;20239;-51
2022/09/03 09:33:13;;;;;;;4.43;2.70;;;;;;;22.78;68.30;98392.97;4920619;28;20246;-54
2022/09/03 09:35:41;;;;;;;4.03;2.80;;;;;;;22.19;71.44;98385.09;4917731;29;20241;-50
2022/09/03 09:38:08;;;;;;;4.37;2.60;;;;;;;22.12;70.89;98375.38;4919229;28;20244;-51
2022/09/03 09:40:37;;;;;;;4.20;2.73;;;;;;;21.75;71.55;98377.47;4919116;28;20255;-50
2022/09/03 09:43:09;;;;;;;6.33;3.13;;;;;;;21.53;70.69;98380.66;4923938;29;20244;-50
2022/09/03 09:45:39;;;;;;;2.83;2.63;;;;;;;21.47;73.08;98370.94;4917198;28;20563;-50
2022/09/03 09:48:19;;;;;;;4.03;2.87;;;;;;;21.32;75.08;98387.31;4918846;28;20290;-50
2022/09/03 09:51:07;;;;;;;5.37;2.97;;;;;;;21.22;76.34;98385.19;4919001;28;20321;-50
2022/09/03 09:53:33;;;;;;;5.10;2.90;;;;;;;21.23;79.28;98392.09;4919582;28;20242;-50
2022/09/03 09:56:01;;;;;;;5.17;3.50;;;;;;;21.30;77.28;98400.00;4921767;29;20237;-50
2022/09/03 09:58:31;;;;;;;4.13;3.37;;;;;;;21.15;78.31;98395.13;4918972;28;20238;-52
2022/09/03 10:01:01;;;;;;;6.53;3.03;;;;;;;21.39;79.69;98402.09;4920930;28;20249;-50
2022/09/03 10:03:33;;;;;;;3.77;3.00;;;;;;;21.51;77.94;98411.94;4918543;28;20230;-51
2022/09/03 10:06:52;;;;;;;2.87;2.57;;;;;;;21.54;75.53;98411.47;4921227;28;21004;-51
2022/09/03 10:08:54;;;;;;;4.77;3.20;;;;;;;21.51;75.30;98410.09;4918338;28;20259;-51
2022/09/03 10:11:26;;;;;;;3.40;3.10;;;;;;;21.52;77.78;98397.63;4916651;29;20242;-51
2022/09/03 10:13:55;;;;;;;3.13;2.83;;;;;;;21.56;77.50;98409.41;4918763;28;20237;-51
2022/09/03 10:16:27;;;;;;;6.00;3.00;;;;;;;21.77;75.17;98407.28;4915523;28;20233;-51
2022/09/03 10:19:04;;;;;;;4.27;3.30;;;;;;;21.60;75.71;98412.44;4921092;28;20752;-50
2022/09/03 10:21:39;;;;;;;4.87;2.87;;;;;;;21.70;75.91;98403.91;4916943;28;20232;-50
2022/09/03 10:24:28;;;;;;;3.40;2.97;;;;;;;21.40;73.92;98400.25;4918386;28;20249;-50
2022/09/03 10:26:57;;;;;;;5.47;3.30;;;;;;;21.32;76.16;98400.56;4919788;28;20236;-51
2022/09/03 10:29:28;;;;;;;4.63;2.93;;;;;;;21.26;76.35;98401.47;4918109;28;20245;-52
2022/09/03 10:32:08;;;;;;;3.93;3.17;;;;;;;21.10;79.12;98409.03;4920101;28;20244;-54
2022/09/03 10:34:46;;;;;;;3.27;2.80;;;;;;;20.85;77.43;98401.22;4919496;28;20234;-53
2022/09/03 10:37:22;;;;;;;3.63;2.63;;;;;;;20.98;78.86;98400.22;4920985;29;20257;-54
2022/09/03 10:40:17;;;;;;;2.67;2.10;;;;;;;20.90;73.51;98406.66;4920598;29;20321;-52
2022/09/03 10:42:52;;;;;;;2.23;2.03;;;;;;;20.77;73.92;98402.28;4910220;28;20253;-51
2022/09/03 10:45:28;;;;;;;2.70;2.20;;;;;;;21.04;74.35;98408.09;4917125;29;20856;-53
2022/09/03 10:48:29;;;;;;;2.87;1.77;;;;;;;21.41;71.52;98412.50;4919498;28;20316;-52
2022/09/03 10:51:02;;;;;;;2.27;1.93;;;;;;;21.91;75.64;98405.19;4906327;28;20329;-51
2022/09/03 10:53:48;;;;;;;4.93;2.20;;;;;;;22.23;71.34;98403.03;4916768;28;20662;-50
2022/09/03 10:56:19;;;;;;;2.20;1.87;;;;;;;22.52;75.43;98399.66;4919992;28;20247;-50
2022/09/03 10:59:08;;;;;;;2.07;1.90;;;;;;;22.81;67.00;98397.81;4918545;28;20234;-53
2022/09/03 11:01:46;;;;;;;3.07;2.10;;;;;;;22.89;69.91;98390.50;4917614;28;20238;-51
2022/09/03 11:04:43;;;;;;;2.60;2.40;;;;;;;23.02;66.02;98403.53;4917791;28;20274;-52
2022/09/03 11:07:14;;;;;;;4.00;2.33;;;;;;;22.87;67.83;98392.59;4921727;28;20635;-52
2022/09/03 11:09:47;;;;;;;4.30;2.30;;;;;;;23.10;62.51;98392.50;4919087;28;20249;-51
2022/09/03 11:12:21;;;;;;;2.03;1.93;;;;;;;23.48;62.83;98402.75;4921287;28;20253;-51
2022/09/03 11:15:02;;;;;;;2.53;2.13;;;;;;;23.36;62.77;98397.50;4919692;29;20239;-54
2022/09/03 11:17:35;;;;;;;2.70;2.50;;;;;;;23.08;64.51;98396.44;4915169;28;20247;-50
2022/09/03 11:20:14;;;;;;;3.43;2.53;;;;;;;23.35;66.16;98396.69;4917903;29;20239;-50
2022/09/03 11:22:44;;;;;;;3.23;2.40;;;;;;;23.42;63.04;98397.34;4918005;28;20245;-50
2022/09/03 11:25:14;;;;;;;3.53;2.57;;;;;;;23.26;65.96;98395.47;4922363;29;20249;-53
2022/09/03 11:27:56;;;;;;;5.73;2.37;;;;;;;23.43;65.62;98398.16;4918049;28;20260;-52
2022/09/03 11:30:25;;;;;;;4.00;2.73;;;;;;;23.34;65.24;98396.94;4912886;28;20623;-50
2022/09/03 11:32:55;;;;;;;3.13;2.40;;;;;;;23.55;65.69;98398.06;4919624;28;20237;-52
2022/09/03 11:35:28;;;;;;;5.73;3.07;;;;;;;23.52;64.98;98395.91;4915096;28;20249;-52
2022/09/03 11:37:59;;;;;;;6.77;3.20;;;;;;;23.33;65.77;98392.66;4920637;28;20333;-50
2022/09/03 11:40:32;;;;;;;5.23;2.80;;;;;;;23.63;67.13;98389.69;4917249;28;20312;-53
2022/09/03 11:43:07;;;;;;;3.37;3.07;;;;;;;23.65;63.48;98395.59;4920039;28;20252;-50
2022/09/03 11:45:37;;;;;;;4.57;3.03;;;;;;;23.25;66.77;98388.53;4916165;28;20227;-50
2022/09/03 11:48:18;;;;;;;4.67;2.90;;;;;;;23.10;65.30;98384.53;4918812;28;20262;-53
2022/09/03 11:50:53;;;;;;;4.60;2.97;;;;;;;23.13;67.47;98384.06;4917523;28;20881;-50
2022/09/03 11:53:33;;;;;;;4.83;3.50;;;;;;;23.32;67.56;98380.38;4917299;28;20609;-50
2022/09/03 11:56:02;;;;;;;3.37;3.07;;;;;;;23.49;64.18;98380.41;4920160;28;20239;-52